バミューダ国際空港の過去48時間の天気

バミューダ国際空港 (Bermuda)

現在時刻: 7/12 14:19 ADT (7/12 17:19 UTC) 以下の時間は現地時間です。

過去48時間のMETAR気象情報
時間 風向 風速(m/s) 視程 気温(℃) 湿度(%) 気圧(hPa) 天気現象
12 13:55 南南西 6 10km以上 29 74 1021
12 12:55 南南西 5 10km以上 29 74 1021
12 11:55 南南西 5 10km以上 28 79 1022
12 10:55 南南西 5 10km以上 28 79 1022
12 09:55 南南西 5 10km以上 28 79 1022
12 08:55 南南西 5 10km以上 27 84 1022
12 07:55 南南西 4 10km以上 27 84 1022
12 06:55 南南西 4 10km以上 26 89 1021
12 05:55 4 10km以上 26 89 1021
12 04:55 南南西 3 10km以上 26 89 1021
12 03:55 南南西 3 10km以上 26 89 1021
12 02:55 3 10km以上 26 89 1021
12 01:55 3 10km以上 26 89 1021
12 00:55 南南西 4 10km以上 26 89 1022
11 23:55 3 10km以上 27 84 1022
11 22:55 3 10km以上 27 84 1022
11 21:55 南南西 4 10km以上 27 84 1021
11 20:55 4 10km以上 27 84 1021
11 19:55 4 10km以上 27 84 1020
11 18:55 南南西 5 10km以上 28 79 1020
11 17:55 南南西 5 10km以上 28 79 1020
11 16:55 南南西 6 10km以上 28 79 1021
TXKF 121655Z 20011KT 9999 FEW015 29/24 Q1021
TXKF 121555Z 20009KT 9999 FEW015 29/24 Q1021
TXKF 121455Z 21010KT 9999 FEW014 28/24 Q1022
TXKF 121355Z 20010KT 9999 FEW014 28/24 Q1022
TXKF 121255Z 21010KT 9999 SCT013 28/24 Q1022
TXKF 121155Z 21009KT 9999 SCT013 27/24 Q1022
TXKF 121055Z 20008KT 9999 FEW013 27/24 Q1022
TXKF 120955Z 20007KT 9999 FEW012 26/24 Q1021
TXKF 120855Z 19007KT 9999 FEW013 SCT300 26/24 Q1021
TXKF 120755Z 20006KT 9999 SCT011 SCT300 26/24 Q1021
TXKF 120655Z 20006KT 9999 FEW012 SCT021 SCT300 26/24 Q1021
TXKF 120555Z 19006KT 9999 FEW013 FEW022 SCT300 26/24 Q1021
TXKF 120455Z 19006KT 9999 FEW014 SCT023 26/24 Q1021
TXKF 120355Z 20007KT 9999 FEW014 SCT023 26/24 Q1022
TXKF 120255Z 19006KT 9999 SCT014 SCT023 27/24 Q1022
TXKF 120155Z 19006KT 9999 FEW013 SCT021 SCT100 27/24 Q1022
TXKF 120055Z 20007KT 9999 FEW014 SCT100 27/24 Q1021
TXKF 112355Z 19008KT 9999 FEW014 FEW040 27/24 Q1021
TXKF 112255Z 19008KT 9999 FEW014 27/24 Q1020
TXKF 112155Z 20010KT 9999 FEW015 28/24 Q1020
TXKF 112055Z 20010KT 9999 FEW015 28/24 Q1020
TXKF 111955Z 20011KT 9999 FEW015 28/24 Q1021